< < Back
Terminal Aerodrome Forecast


Current Version              Previous Versions:   1  2  3  4  5  6  7  8  9  

Terminal Aerodrome Forecast

953
FTUS44 KMRX 031436 AAA
TAFCHA
TAF AMD
KCHA 031436Z 0315/0412 23006KT 6SM -SHRA BR BKN030 OVC050
      TEMPO 0315/0317 4SM TSRA BR SCT012 BKN020CB OVC035
     FM031700 22009KT P6SM VCTS SCT015CB BKN035
     FM032200 23012G25KT P6SM VCSH SCT020 BKN040
     FM040200 21006KT 5SM -SHRA BR BKN035 OVC070
     FM040600 21008KT 6SM -RA OVC025
     FM040800 22008KT 6SM BR OVC050=



Latest METAR

590
SAUS80 KWBC 032100
MTRCHA
METAR KCHA 032053Z 24010G17KT 10SM BKN030 BKN050 BKN250 27/19 A2996 RMK
AO2 PK WND 26026/2025 SLP135 60000 T02670189 58006 $


USA.gov is the U.S. government's official web portal to all federal, state and local government web resources and services.